createdAt,value
2023-02-26T00:01:38.022Z,64.49
2023-02-26T00:06:38.332Z,64.47
2023-02-26T00:11:35.312Z,63.85
2023-02-26T00:16:34.772Z,63.80
2023-02-26T00:21:32.109Z,64.20
2023-02-26T00:26:29.372Z,64.77
2023-02-26T00:31:27.104Z,64.85
2023-02-26T00:36:29.970Z,64.99
2023-02-26T00:41:30.067Z,64.73
2023-02-26T00:46:34.589Z,64.49
2023-02-26T00:51:37.591Z,64.76
2023-02-26T00:56:34.164Z,65.23
2023-02-26T01:01:31.180Z,65.33
2023-02-26T01:06:32.424Z,66.08
2023-02-26T01:11:31.298Z,65.19
2023-02-26T01:16:30.661Z,65.26
2023-02-26T01:21:31.149Z,65.15
2023-02-26T01:26:29.380Z,65.20
2023-02-26T01:31:39.315Z,65.35
2023-02-26T01:36:41.275Z,66.63
2023-02-26T01:41:40.100Z,65.05
2023-02-26T01:46:52.502Z,64.37
2023-02-26T01:51:50.860Z,62.71
2023-02-26T01:56:49.477Z,61.78
2023-02-26T02:01:46.830Z,60.71
2023-02-26T02:06:43.641Z,59.79
2023-02-26T02:11:48.701Z,59.08
2023-02-26T02:16:48.724Z,58.55
2023-02-26T02:21:54.184Z,57.80
2023-02-26T02:26:56.303Z,57.02
2023-02-26T02:31:57.807Z,56.75
2023-02-26T02:36:57.850Z,56.46
2023-02-26T02:41:57.697Z,56.23
2023-02-26T02:46:56.192Z,56.21
2023-02-26T02:51:54.594Z,56.05
2023-02-26T02:56:54.992Z,54.95
2023-02-26T03:01:55.368Z,53.44
2023-02-26T03:06:52.691Z,52.33
2023-02-26T03:11:49.357Z,51.73
2023-02-26T03:16:56.926Z,51.58
2023-02-26T03:21:57.407Z,50.94
2023-02-26T03:27:18.089Z,49.70
2023-02-26T03:32:19.141Z,47.09
2023-02-26T03:37:21.930Z,46.29
2023-02-26T03:42:21.919Z,45.10
2023-02-26T03:47:24.865Z,44.32
2023-02-26T03:52:31.557Z,43.64
2023-02-26T03:57:49.164Z,43.08
2023-02-26T04:03:08.586Z,43.60
2023-02-26T04:08:05.994Z,43.64
2023-02-26T04:13:03.673Z,42.87
2023-02-26T04:18:03.628Z,42.13
2023-02-26T04:23:00.834Z,41.14
2023-02-26T04:28:01.947Z,42.21
2023-02-26T04:32:59.173Z,43.53
2023-02-26T04:37:56.060Z,44.13
2023-02-26T04:42:53.080Z,44.53
2023-02-26T04:47:54.653Z,44.50
2023-02-26T04:52:52.217Z,44.67
2023-02-26T04:57:49.119Z,44.90
2023-02-26T05:02:51.064Z,44.97
2023-02-26T05:07:48.581Z,44.66
2023-02-26T05:12:45.335Z,44.67
2023-02-26T05:17:43.896Z,44.57
2023-02-26T05:22:43.145Z,44.49
2023-02-26T05:27:41.932Z,44.02
2023-02-26T05:32:39.831Z,44.06
2023-02-26T05:37:36.559Z,43.77
2023-02-26T05:42:33.206Z,43.94
2023-02-26T05:47:30.508Z,43.97
2023-02-26T05:52:27.306Z,44.31
2023-02-26T05:57:24.196Z,44.73
2023-02-26T06:02:21.062Z,44.91
2023-02-26T06:07:18.373Z,45.13
2023-02-26T06:12:15.126Z,45.39
2023-02-26T06:17:11.786Z,45.51
2023-02-26T06:22:08.618Z,45.71
2023-02-26T06:27:06.221Z,46.08
2023-02-26T06:32:03.092Z,46.61
2023-02-26T06:36:59.938Z,47.25
2023-02-26T06:41:56.755Z,47.83
2023-02-26T06:46:54.050Z,48.20
2023-02-26T06:51:50.976Z,48.60
2023-02-26T06:56:47.668Z,48.60
2023-02-26T07:01:44.362Z,48.64
2023-02-26T07:06:42.054Z,48.61
2023-02-26T07:11:39.137Z,48.12
2023-02-26T07:16:36.081Z,48.17
2023-02-26T07:21:32.800Z,48.25
2023-02-26T07:26:30.330Z,48.43
2023-02-26T07:31:27.580Z,48.64
2023-02-26T07:36:24.732Z,49.23
2023-02-26T07:41:21.680Z,49.46
2023-02-26T07:46:19.282Z,50.44
2023-02-26T07:51:15.942Z,50.72
2023-02-26T07:56:17.055Z,50.86
2023-02-26T08:01:15.242Z,51.48
2023-02-26T08:06:13.945Z,51.79
2023-02-26T08:11:10.794Z,51.86
2023-02-26T08:16:08.072Z,52.37
2023-02-26T08:21:05.413Z,52.46
2023-02-26T08:26:03.163Z,52.44
2023-02-26T08:31:00.548Z,52.05
2023-02-26T08:35:58.395Z,51.78
2023-02-26T08:40:56.472Z,51.84
2023-02-26T08:45:55.683Z,51.49
2023-02-26T08:50:52.415Z,50.90
2023-02-26T08:55:49.249Z,50.30
2023-02-26T09:00:46.031Z,50.08
2023-02-26T09:05:43.682Z,49.40
2023-02-26T09:10:41.218Z,48.45
2023-02-26T09:15:38.106Z,48.24
2023-02-26T09:20:40.639Z,47.82
2023-02-26T09:25:38.120Z,47.13
2023-02-26T09:30:35.182Z,46.04
2023-02-26T09:41:21.678Z,45.49
2023-02-26T09:46:24.787Z,45.13
2023-02-26T09:51:22.618Z,44.46
2023-02-26T09:56:21.952Z,44.29
2023-02-26T10:01:24.359Z,44.32
2023-02-26T10:06:26.570Z,43.41
2023-02-26T10:11:27.958Z,43.74
2023-02-26T10:16:28.017Z,43.42
2023-02-26T10:21:27.662Z,42.87
2023-02-26T10:26:26.995Z,43.31
2023-02-26T10:31:29.086Z,42.89
2023-02-26T10:36:32.144Z,42.82
2023-02-26T10:41:31.197Z,42.42
2023-02-26T10:46:38.285Z,41.04
2023-02-26T10:51:36.336Z,40.09
2023-02-26T10:56:34.392Z,39.73
2023-02-26T11:01:31.334Z,38.90
2023-02-26T11:06:30.012Z,38.69
2023-02-26T11:11:41.303Z,38.79
2023-02-26T11:16:42.569Z,38.49
2023-02-26T11:21:40.837Z,37.95
2023-02-26T11:26:39.026Z,37.13
2023-02-26T11:31:35.727Z,37.15
2023-02-26T11:36:36.138Z,36.16
2023-02-26T11:41:35.795Z,35.99
2023-02-26T11:46:36.979Z,35.92
2023-02-26T11:51:33.893Z,36.36
2023-02-26T11:56:31.449Z,36.05
2023-02-26T12:01:29.216Z,36.30
2023-02-26T12:06:27.146Z,36.24
2023-02-26T12:11:36.600Z,36.73
2023-02-26T12:16:37.417Z,37.31
2023-02-26T12:21:49.475Z,36.96
2023-02-26T12:26:50.730Z,37.49
2023-02-26T12:32:04.583Z,37.54
2023-02-26T12:37:23.104Z,37.16
2023-02-26T12:42:25.755Z,37.02
2023-02-26T12:47:32.814Z,37.15
2023-02-26T12:52:40.231Z,37.72
2023-02-26T12:57:50.301Z,38.10
2023-02-26T13:03:17.632Z,37.99
2023-02-26T13:08:21.722Z,38.22
2023-02-26T13:13:25.627Z,38.30
2023-02-26T13:18:27.840Z,38.50
2023-02-26T13:23:26.348Z,38.74
2023-02-26T13:28:31.488Z,39.05
2023-02-26T13:33:32.634Z,39.39
2023-02-26T13:38:35.889Z,39.68
2023-02-26T13:43:38.082Z,39.85
2023-02-26T13:48:41.586Z,39.80
2023-02-26T13:53:57.976Z,40.07
2023-02-26T13:59:00.751Z,40.09
2023-02-26T14:04:07.886Z,40.33
2023-02-26T14:09:06.163Z,40.48
2023-02-26T14:14:10.762Z,40.52
2023-02-26T14:19:18.786Z,40.61
2023-02-26T14:24:18.837Z,40.78
2023-02-26T14:29:24.653Z,40.56
2023-02-26T14:34:22.801Z,40.68
2023-02-26T14:39:31.263Z,40.86
2023-02-26T14:44:30.112Z,40.97
2023-02-26T14:49:30.080Z,41.11
2023-02-26T14:54:33.799Z,40.68
2023-02-26T15:00:00.980Z,41.04
2023-02-26T15:05:19.120Z,41.20
2023-02-26T15:10:24.930Z,41.05
2023-02-26T15:15:34.279Z,41.10
2023-02-26T15:20:36.808Z,41.39
2023-02-26T15:25:35.921Z,41.17
2023-02-26T15:30:35.322Z,41.40
2023-02-26T15:35:35.866Z,41.60
2023-02-26T15:40:33.830Z,41.50
2023-02-26T15:45:36.941Z,41.80
2023-02-26T15:50:38.455Z,42.30
2023-02-26T15:55:36.429Z,42.36
2023-02-26T16:00:36.195Z,42.54
2023-02-26T16:05:33.327Z,42.35
2023-02-26T16:10:33.271Z,42.20
2023-02-26T16:15:32.426Z,42.40
2023-02-26T16:20:33.853Z,42.36
2023-02-26T16:25:46.373Z,42.32
2023-02-26T16:30:45.064Z,42.67
2023-02-26T16:35:47.700Z,42.80
2023-02-26T16:40:48.686Z,42.72
2023-02-26T16:45:50.203Z,42.99
2023-02-26T16:50:50.868Z,43.24
2023-02-26T16:55:51.852Z,43.53
2023-02-26T17:00:52.116Z,43.81
2023-02-26T17:05:53.552Z,43.97
2023-02-26T17:16:37.547Z,44.55
2023-02-26T17:21:37.869Z,44.95
2023-02-26T17:26:34.982Z,45.08
2023-02-26T17:31:36.007Z,45.56
2023-02-26T17:36:34.847Z,45.69
2023-02-26T17:41:33.689Z,45.75
2023-02-26T17:46:30.489Z,45.85
2023-02-26T17:51:29.631Z,46.14
2023-02-26T17:56:30.166Z,46.41
2023-02-26T18:01:28.547Z,46.46
2023-02-26T18:06:54.559Z,46.78
2023-02-26T18:11:51.254Z,46.83
2023-02-26T18:16:48.641Z,46.81
2023-02-26T18:21:45.240Z,47.06
2023-02-26T18:26:41.950Z,47.15
2023-02-26T18:31:39.502Z,46.93
2023-02-26T18:36:39.146Z,46.86
2023-02-26T18:41:35.952Z,46.91
2023-02-26T18:46:34.326Z,47.01
2023-02-26T18:51:31.190Z,46.96
2023-02-26T18:56:31.312Z,46.85
2023-02-26T19:01:29.253Z,46.89
2023-02-26T19:06:26.565Z,47.08
2023-02-26T19:11:24.503Z,47.01
2023-02-26T19:16:22.704Z,47.12
2023-02-26T19:21:19.503Z,47.13
2023-02-26T19:26:17.844Z,46.83
2023-02-26T19:31:16.775Z,47.00
2023-02-26T19:36:16.073Z,47.01
2023-02-26T19:41:13.214Z,47.25
2023-02-26T19:46:10.343Z,47.42
2023-02-26T19:51:07.655Z,47.42
2023-02-26T19:56:06.078Z,47.86
2023-02-26T20:01:04.171Z,47.77
2023-02-26T20:06:01.230Z,47.87
2023-02-26T20:10:58.466Z,47.93
2023-02-26T20:15:56.257Z,48.12
2023-02-26T20:20:53.225Z,48.35
2023-02-26T20:25:50.239Z,48.48
2023-02-26T20:30:48.882Z,48.84
2023-02-26T20:35:49.547Z,49.07
2023-02-26T20:40:46.887Z,49.73
2023-02-26T20:45:43.830Z,50.52
2023-02-26T20:50:43.643Z,50.92
2023-02-26T20:55:41.198Z,51.17
2023-02-26T21:00:42.012Z,51.63
2023-02-26T21:05:39.355Z,51.86
2023-02-26T21:10:36.623Z,52.43
2023-02-26T21:15:41.116Z,52.87
2023-02-26T21:20:38.164Z,52.95
2023-02-26T21:25:42.075Z,52.73
2023-02-26T21:30:42.322Z,53.07
2023-02-26T21:35:39.561Z,52.96
2023-02-26T21:40:39.227Z,52.08
2023-02-26T21:45:36.335Z,52.35
2023-02-26T21:50:34.253Z,56.51
2023-02-26T21:55:31.174Z,58.71
2023-02-26T22:00:28.043Z,63.02
2023-02-26T22:05:24.759Z,65.51
2023-02-26T22:10:24.896Z,63.92
2023-02-26T22:15:22.847Z,61.97
2023-02-26T22:20:19.618Z,61.25
2023-02-26T22:25:18.456Z,65.52
2023-02-26T22:30:16.674Z,66.69
2023-02-26T22:35:13.672Z,65.60
2023-02-26T22:40:13.886Z,68.06
2023-02-26T22:45:12.855Z,66.58
2023-02-26T22:50:14.113Z,67.90
2023-02-26T22:55:15.639Z,68.12
2023-02-26T23:00:18.175Z,70.03
2023-02-26T23:05:16.155Z,71.99
2023-02-26T23:10:14.538Z,69.88
2023-02-26T23:15:11.902Z,69.80
2023-02-26T23:20:11.967Z,69.68
2023-02-26T23:25:09.794Z,69.46
2023-02-26T23:30:07.881Z,71.01
2023-02-26T23:35:14.365Z,70.36
2023-02-26T23:40:15.009Z,69.44
2023-02-26T23:45:12.469Z,71.10
2023-02-26T23:50:10.138Z,73.13
2023-02-26T23:55:07.661Z,74.83
